Terminal Aerodrome Forecast
Issued by NWS Wakefield, VA

Home | Current Version | Previous Version | Text Only | Print | Product List | Glossary On
Versions: 1 2 3 4 5 6 7 8 9 10 11 12 13
000
FTUS41 KAKQ 041146 RRA
TAFORF
TAF
KORF 041146Z 0412/0512 34005KT P6SM BKN200
     FM042300 VRB03KT P6SM VCSH OVC060
     FM050400 15007KT 6SM -RA OVC040
     FM050700 VRB05KT 6SM -RA SCT012 OVC025
     FM050900 00000KT 6SM -RA OVC012=

USA.gov is the U.S. government's official web portal to all federal, state and local government web resources and services.